createdAt,value
2023-03-16T06:03:08.100Z,96206.00
2023-03-16T06:04:09.081Z,96206.00
2023-03-16T06:05:09.021Z,96200.00
2023-03-16T06:06:09.051Z,96206.00
2023-03-16T06:07:09.077Z,96204.00
2023-03-16T06:08:08.120Z,96202.00
2023-03-16T06:09:09.152Z,96200.00
2023-03-16T06:10:09.145Z,96200.00
2023-03-16T06:11:09.170Z,96198.00
2023-03-16T06:12:09.165Z,96202.00
2023-03-16T06:13:09.200Z,96200.00
2023-03-16T06:14:09.249Z,96202.00
2023-03-16T06:15:09.322Z,96202.00
2023-03-16T06:16:09.413Z,96202.00
2023-03-16T06:17:09.475Z,96204.00
2023-03-16T06:18:09.511Z,96206.00
2023-03-16T06:19:09.557Z,96204.00
2023-03-16T06:20:09.586Z,96204.00
2023-03-16T06:21:08.622Z,96208.00
2023-03-16T06:22:08.802Z,96206.00
2023-03-16T06:23:09.718Z,96206.00
2023-03-16T06:24:09.776Z,96204.00
2023-03-16T06:25:09.860Z,96206.00
2023-03-16T06:26:09.875Z,96208.00
2023-03-16T06:27:08.906Z,96210.00
2023-03-16T06:28:09.976Z,96212.00
2023-03-16T06:29:10.007Z,96212.00
2023-03-16T06:30:10.033Z,96216.00
2023-03-16T06:31:10.106Z,96214.00
2023-03-16T06:32:10.122Z,96214.00
2023-03-16T06:33:09.205Z,96210.00
2023-03-16T06:34:10.190Z,96212.00
2023-03-16T06:35:10.337Z,96212.00
2023-03-16T06:36:09.308Z,96210.00
2023-03-16T06:37:10.334Z,96210.00
2023-03-16T06:38:10.333Z,96212.00
2023-03-16T06:39:10.394Z,96206.00
2023-03-16T06:40:09.468Z,96208.00
2023-03-16T06:41:10.462Z,96210.00
2023-03-16T06:42:09.479Z,96208.00
2023-03-16T06:43:10.536Z,96210.00
2023-03-16T06:44:10.573Z,96206.00
2023-03-16T06:45:09.612Z,96206.00
2023-03-16T06:46:10.712Z,96210.00
2023-03-16T06:47:10.702Z,96208.00
2023-03-16T06:48:10.722Z,96204.00
2023-03-16T06:49:10.762Z,96206.00
2023-03-16T06:50:10.797Z,96208.00
2023-03-16T06:51:10.845Z,96208.00
2023-03-16T06:52:10.873Z,96212.00
2023-03-16T06:53:09.884Z,96212.00
2023-03-16T06:54:10.918Z,96214.00
2023-03-16T06:55:10.961Z,96212.00
2023-03-16T06:56:10.984Z,96212.00
2023-03-16T06:57:11.067Z,96214.00
2023-03-16T06:58:11.081Z,96214.00
2023-03-16T06:59:11.094Z,96214.00
2023-03-16T07:00:10.137Z,96216.00
2023-03-16T07:01:11.201Z,96210.00
2023-03-16T07:02:11.637Z,96210.00
2023-03-16T07:03:10.218Z,96208.00
2023-03-16T07:04:11.287Z,96206.00
2023-03-16T07:05:11.310Z,96202.00
2023-03-16T07:06:11.356Z,96206.00
2023-03-16T07:07:11.412Z,96208.00
2023-03-16T07:08:11.409Z,96208.00
2023-03-16T07:09:10.467Z,96210.00
2023-03-16T07:10:11.515Z,96212.00
2023-03-16T07:11:11.588Z,96212.00
2023-03-16T07:12:10.615Z,96210.00
2023-03-16T07:13:10.667Z,96210.00
2023-03-16T07:14:11.676Z,96216.00
2023-03-16T07:15:11.724Z,96216.00
2023-03-16T07:16:11.743Z,96216.00
2023-03-16T07:17:11.787Z,96214.00
2023-03-16T07:18:11.779Z,96214.00
2023-03-16T07:19:11.846Z,96218.00
2023-03-16T07:20:11.865Z,96214.00
2023-03-16T07:21:10.880Z,96212.00
2023-03-16T07:22:10.895Z,96214.00
2023-03-16T07:23:10.944Z,96212.00
2023-03-16T07:24:11.935Z,96216.00
2023-03-16T07:25:11.938Z,96210.00
2023-03-16T07:26:10.936Z,96214.00
2023-03-16T07:27:12.638Z,96216.00
2023-03-16T07:28:10.923Z,96214.00
2023-03-16T07:29:11.940Z,96216.00
2023-03-16T07:30:11.946Z,96216.00
2023-03-16T07:31:11.949Z,96214.00
2023-03-16T07:32:11.983Z,96214.00
2023-03-16T07:33:11.016Z,96216.00
2023-03-16T07:34:11.956Z,96218.00
2023-03-16T07:35:11.958Z,96220.00
2023-03-16T07:36:12.021Z,96216.00
2023-03-16T07:37:10.975Z,96218.00
2023-03-16T07:38:10.957Z,96216.00
2023-03-16T07:39:11.979Z,96216.00
2023-03-16T07:40:11.980Z,96214.00
2023-03-16T07:41:10.970Z,96212.00
2023-03-16T07:42:12.018Z,96212.00
2023-03-16T07:43:12.049Z,96214.00
2023-03-16T07:44:12.103Z,96212.00
2023-03-16T07:45:12.112Z,96212.00
2023-03-16T07:46:12.183Z,96212.00
2023-03-16T07:47:12.136Z,96210.00
2023-03-16T07:48:12.141Z,96212.00
2023-03-16T07:49:12.176Z,96210.00
2023-03-16T07:50:12.167Z,96210.00
2023-03-16T07:51:12.197Z,96208.00
2023-03-16T07:52:12.624Z,96206.00
2023-03-16T07:53:11.187Z,96208.00
2023-03-16T07:54:11.194Z,96208.00
2023-03-16T07:55:12.201Z,96210.00
2023-03-16T07:56:11.181Z,96206.00
2023-03-16T07:57:12.659Z,96206.00
2023-03-16T07:58:11.272Z,96202.00
2023-03-16T07:59:11.174Z,96206.00
2023-03-16T08:00:12.180Z,96210.00
2023-03-16T08:01:12.174Z,96212.00
2023-03-16T08:02:12.322Z,96214.00
2023-03-16T08:03:12.258Z,96214.00
2023-03-16T08:04:12.198Z,96212.00
2023-03-16T08:05:12.199Z,96206.00
2023-03-16T08:06:12.204Z,96206.00
2023-03-16T08:07:12.187Z,96208.00
2023-03-16T08:08:12.227Z,96206.00
2023-03-16T08:09:12.233Z,96206.00
2023-03-16T08:10:12.204Z,96206.00
2023-03-16T08:11:12.240Z,96204.00
2023-03-16T08:12:12.230Z,96206.00
2023-03-16T08:13:11.275Z,96202.00
2023-03-16T08:14:12.256Z,96202.00
2023-03-16T08:15:12.863Z,96204.00
2023-03-16T08:16:11.379Z,96204.00
2023-03-16T08:17:11.268Z,96206.00
2023-03-16T08:18:12.279Z,96206.00
2023-03-16T08:19:12.296Z,96202.00
2023-03-16T08:20:11.318Z,96200.00
2023-03-16T08:21:12.318Z,96200.00
2023-03-16T08:22:12.350Z,96200.00
2023-03-16T08:23:12.373Z,96198.00
2023-03-16T08:24:12.391Z,96194.00
2023-03-16T08:25:12.397Z,96194.00
2023-03-16T08:26:12.412Z,96188.00
2023-03-16T08:27:12.558Z,96190.00
2023-03-16T08:28:12.437Z,96190.00
2023-03-16T08:29:12.526Z,96190.00
2023-03-16T08:30:12.473Z,96190.00
2023-03-16T08:31:12.562Z,96186.00
2023-03-16T08:32:12.501Z,96188.00
2023-03-16T08:33:12.574Z,96188.00
2023-03-16T08:34:12.543Z,96188.00
2023-03-16T08:35:12.558Z,96188.00
2023-03-16T08:36:12.601Z,96186.00
2023-03-16T08:37:12.603Z,96179.00
2023-03-16T08:38:11.625Z,96179.00
2023-03-16T08:39:12.625Z,96186.00
2023-03-16T08:40:12.702Z,96188.00
2023-03-16T08:41:12.660Z,96190.00
2023-03-16T08:42:12.681Z,96190.00
2023-03-16T08:43:12.721Z,96190.00
2023-03-16T08:44:12.712Z,96192.00
2023-03-16T08:45:14.355Z,96188.00
2023-03-16T08:46:11.764Z,96186.00
2023-03-16T08:47:11.709Z,96186.00
2023-03-16T08:48:13.156Z,96186.00
2023-03-16T08:49:12.692Z,96186.00
2023-03-16T08:50:12.850Z,96186.00
2023-03-16T08:51:12.687Z,96186.00
2023-03-16T08:52:12.676Z,96188.00
2023-03-16T08:53:12.678Z,96188.00
2023-03-16T08:54:11.656Z,96188.00
2023-03-16T08:55:12.664Z,96186.00
2023-03-16T08:56:12.655Z,96179.00
2023-03-16T08:57:12.640Z,96175.00
2023-03-16T08:58:12.625Z,96173.00
2023-03-16T08:59:26.990Z,96175.00
2023-03-16T09:00:12.656Z,96177.00
2023-03-16T09:01:12.609Z,96177.00
2023-03-16T09:02:12.628Z,96175.00
2023-03-16T09:03:12.594Z,96177.00
2023-03-16T09:04:12.618Z,96177.00
2023-03-16T09:05:11.604Z,96179.00
2023-03-16T09:06:12.573Z,96186.00
2023-03-16T09:07:12.570Z,96179.00
2023-03-16T09:08:12.571Z,96179.00
2023-03-16T09:09:12.562Z,96179.00
2023-03-16T09:10:12.558Z,96186.00
2023-03-16T09:11:12.538Z,96179.00
2023-03-16T09:12:12.551Z,96175.00
2023-03-16T09:13:12.533Z,96171.00
2023-03-16T09:14:12.513Z,96171.00
2023-03-16T09:15:11.568Z,96169.00
2023-03-16T09:16:12.614Z,96167.00
2023-03-16T09:17:12.502Z,96173.00
2023-03-16T09:18:12.494Z,96173.00
2023-03-16T09:19:12.477Z,96173.00
2023-03-16T09:20:26.709Z,96173.00
2023-03-16T09:21:12.474Z,96173.00
2023-03-16T09:22:12.460Z,96175.00
2023-03-16T09:23:12.461Z,96173.00
2023-03-16T09:24:12.442Z,96173.00
2023-03-16T09:25:12.453Z,96171.00
2023-03-16T09:26:11.443Z,96169.00
2023-03-16T09:27:12.588Z,96169.00
2023-03-16T09:28:12.416Z,96167.00
2023-03-16T09:29:12.411Z,96169.00
2023-03-16T09:30:12.409Z,96167.00
2023-03-16T09:31:11.447Z,96165.00
2023-03-16T09:32:12.412Z,96171.00
2023-03-16T09:33:12.453Z,96169.00
2023-03-16T09:34:12.365Z,96167.00
2023-03-16T09:35:12.359Z,96163.00
2023-03-16T09:36:12.376Z,96163.00
2023-03-16T09:37:12.353Z,96165.00
2023-03-16T09:38:12.342Z,96161.00
2023-03-16T09:39:11.331Z,96161.00
2023-03-16T09:40:12.351Z,96159.00
2023-03-16T09:41:12.384Z,96157.00
2023-03-16T09:42:12.396Z,96157.00
2023-03-16T09:43:12.674Z,96157.00
2023-03-16T09:44:12.439Z,96159.00
2023-03-16T09:45:12.451Z,96157.00
2023-03-16T09:46:12.499Z,96157.00
2023-03-16T09:47:12.516Z,96153.00
2023-03-16T09:48:11.523Z,96151.00
2023-03-16T09:49:11.538Z,96153.00
2023-03-16T09:50:12.610Z,96147.00
2023-03-16T09:51:12.656Z,96149.00
2023-03-16T09:52:12.591Z,96147.00
2023-03-16T09:53:12.653Z,96145.00
2023-03-16T09:54:12.655Z,96147.00
2023-03-16T09:55:12.669Z,96145.00
2023-03-16T09:56:12.683Z,96143.00
2023-03-16T09:57:11.695Z,96141.00
2023-03-16T09:58:13.200Z,96137.00
2023-03-16T09:59:12.733Z,96141.00
2023-03-16T10:00:11.764Z,96141.00
2023-03-16T10:01:12.809Z,96139.00
2023-03-16T10:02:12.797Z,96139.00
2023-03-16T10:03:12.848Z,96139.00
2023-03-16T10:04:12.859Z,96141.00
2023-03-16T10:05:12.864Z,96141.00
2023-03-16T10:06:12.874Z,96141.00
2023-03-16T10:07:12.906Z,96139.00
2023-03-16T10:08:12.952Z,96133.00
2023-03-16T10:09:12.959Z,96132.00
2023-03-16T10:11:12.037Z,96128.00
2023-03-16T10:12:13.078Z,96126.00
2023-03-16T10:13:13.118Z,96128.00
2023-03-16T10:14:12.167Z,96120.00
2023-03-16T10:15:13.235Z,96122.00
2023-03-16T10:16:13.325Z,96122.00
2023-03-16T10:17:13.341Z,96122.00
2023-03-16T10:18:13.541Z,96122.00
2023-03-16T10:19:13.487Z,96122.00
2023-03-16T10:20:12.478Z,96124.00
2023-03-16T10:21:12.468Z,96116.00
2023-03-16T10:22:13.481Z,96114.00
2023-03-16T10:23:13.507Z,96114.00
2023-03-16T10:24:13.588Z,96112.00
2023-03-16T10:25:13.538Z,96112.00
2023-03-16T10:26:13.558Z,96112.00
2023-03-16T10:27:13.589Z,96108.00
2023-03-16T10:28:13.630Z,96112.00
2023-03-16T10:29:13.606Z,96110.00
2023-03-16T10:30:13.620Z,96108.00
2023-03-16T10:31:13.681Z,96106.00
2023-03-16T10:32:13.665Z,96108.00
2023-03-16T10:33:13.859Z,96104.00
2023-03-16T10:34:12.700Z,96102.00
2023-03-16T10:35:12.769Z,96102.00
2023-03-16T10:36:13.772Z,96102.00
2023-03-16T10:37:13.804Z,96102.00
2023-03-16T10:39:13.773Z,96098.00
2023-03-16T10:40:13.789Z,96098.00
2023-03-16T10:41:12.822Z,96096.00
2023-03-16T10:42:13.845Z,96094.00
2023-03-16T10:43:13.942Z,96092.00
2023-03-16T10:44:13.907Z,96090.00
2023-03-16T10:45:13.906Z,96090.00
2023-03-16T10:46:15.210Z,96090.00
2023-03-16T10:47:14.013Z,96088.00
2023-03-16T10:48:14.224Z,96090.00
2023-03-16T10:49:14.027Z,96086.00
2023-03-16T10:50:14.046Z,96088.00
2023-03-16T10:51:14.077Z,96086.00
2023-03-16T10:52:14.070Z,96086.00
2023-03-16T10:53:14.089Z,96088.00
2023-03-16T10:54:13.090Z,96090.00
2023-03-16T10:55:14.118Z,96088.00
2023-03-16T10:56:13.153Z,96085.00
2023-03-16T10:57:13.110Z,96085.00
2023-03-16T10:58:14.144Z,96085.00
2023-03-16T10:59:14.130Z,96085.00
2023-03-16T11:00:14.137Z,96085.00
2023-03-16T11:01:14.216Z,96081.00
2023-03-16T11:02:14.138Z,96081.00
2023-03-16T11:03:14.171Z,96081.00
2023-03-16T11:04:14.187Z,96075.00
2023-03-16T11:05:14.158Z,96075.00
2023-03-16T11:06:14.178Z,96073.00
2023-03-16T11:07:14.201Z,96073.00
2023-03-16T11:08:14.200Z,96071.00
2023-03-16T11:09:14.170Z,96069.00
2023-03-16T11:10:14.176Z,96069.00
2023-03-16T11:11:13.229Z,96069.00
2023-03-16T11:12:14.209Z,96067.00
2023-03-16T11:13:14.214Z,96069.00
2023-03-16T11:14:14.174Z,96067.00
2023-03-16T11:15:25.263Z,96063.00
2023-03-16T11:16:14.249Z,96059.00
2023-03-16T11:17:13.158Z,96061.00
2023-03-16T11:18:14.160Z,96061.00
2023-03-16T11:19:14.151Z,96055.00
2023-03-16T11:20:14.151Z,96055.00
2023-03-16T11:21:14.128Z,96057.00
2023-03-16T11:22:13.141Z,96053.00
2023-03-16T11:23:13.141Z,96055.00
2023-03-16T11:24:14.120Z,96053.00
2023-03-16T11:25:14.093Z,96049.00
2023-03-16T11:26:14.102Z,96049.00
2023-03-16T11:27:14.094Z,96051.00
2023-03-16T11:28:13.131Z,96045.00
2023-03-16T11:29:14.078Z,96043.00
2023-03-16T11:30:14.082Z,96041.00
2023-03-16T11:31:14.104Z,96039.00
2023-03-16T11:32:15.247Z,96039.00
2023-03-16T11:33:14.104Z,96038.00
2023-03-16T11:34:13.035Z,96034.00
2023-03-16T11:35:14.034Z,96030.00
2023-03-16T11:36:13.059Z,96030.00
2023-03-16T11:37:14.038Z,96026.00
2023-03-16T11:38:14.016Z,96020.00
2023-03-16T11:39:13.045Z,96022.00
2023-03-16T11:40:14.023Z,96020.00
2023-03-16T11:41:13.998Z,96020.00
2023-03-16T11:42:12.981Z,96018.00
2023-03-16T11:43:13.984Z,96010.00
2023-03-16T11:44:13.963Z,96010.00
2023-03-16T11:45:13.954Z,96006.00
2023-03-16T11:46:14.103Z,96006.00
2023-03-16T11:47:14.027Z,96006.00
2023-03-16T11:48:14.071Z,96000.00
2023-03-16T11:49:14.102Z,95998.00
2023-03-16T11:50:14.145Z,95996.00
2023-03-16T11:51:14.178Z,95994.00
2023-03-16T11:52:14.181Z,95991.00
2023-03-16T11:53:14.205Z,95991.00
2023-03-16T11:54:14.233Z,95991.00
2023-03-16T11:55:13.295Z,95991.00
2023-03-16T11:56:14.335Z,95989.00
2023-03-16T11:57:14.347Z,95989.00
2023-03-16T11:58:14.350Z,95985.00
2023-03-16T11:59:14.387Z,95981.00
2023-03-16T12:00:13.426Z,95985.00
2023-03-16T12:01:13.427Z,95979.00
2023-03-16T12:02:14.483Z,95979.00
2023-03-16T12:03:14.520Z,95975.00
2023-03-16T12:04:14.550Z,95973.00
2023-03-16T12:05:14.546Z,95973.00
2023-03-16T12:06:23.020Z,95969.00
2023-03-16T12:07:14.557Z,95967.00
2023-03-16T12:08:14.525Z,95965.00
2023-03-16T12:09:14.539Z,95967.00
2023-03-16T12:10:14.536Z,95967.00
2023-03-16T12:11:14.505Z,95965.00
2023-03-16T12:12:14.508Z,95959.00
2023-03-16T12:13:14.505Z,95959.00
2023-03-16T12:14:14.587Z,95959.00
2023-03-16T12:15:14.504Z,95955.00
2023-03-16T12:16:14.509Z,95953.00
2023-03-16T12:17:14.466Z,95953.00
2023-03-16T12:18:14.452Z,95949.00
2023-03-16T12:19:14.461Z,95947.00
2023-03-16T12:20:14.568Z,95944.00
2023-03-16T12:21:13.445Z,95942.00
2023-03-16T12:22:13.422Z,95942.00
2023-03-16T12:23:14.426Z,95940.00
2023-03-16T12:24:14.406Z,95940.00
2023-03-16T12:25:13.402Z,95940.00
2023-03-16T12:26:14.447Z,95938.00
2023-03-16T12:27:14.384Z,95934.00
2023-03-16T12:28:13.380Z,95932.00
2023-03-16T12:29:14.397Z,95932.00
2023-03-16T12:30:14.430Z,95932.00
2023-03-16T12:31:14.440Z,95922.00
2023-03-16T12:32:14.372Z,95930.00
2023-03-16T12:33:14.349Z,95920.00
2023-03-16T12:34:14.345Z,95920.00
2023-03-16T12:35:14.354Z,95916.00
2023-03-16T12:36:14.347Z,95914.00
2023-03-16T12:37:14.338Z,95916.00
2023-03-16T12:38:14.309Z,95912.00
2023-03-16T12:39:14.764Z,95912.00
2023-03-16T12:40:13.490Z,95910.00
2023-03-16T12:41:17.388Z,95910.00
2023-03-16T12:42:13.313Z,95910.00
2023-03-16T12:43:14.272Z,95904.00
2023-03-16T12:44:13.804Z,95906.00
2023-03-16T12:45:14.259Z,95904.00
2023-03-16T12:46:14.407Z,95902.00
2023-03-16T12:47:14.234Z,95902.00
2023-03-16T12:48:14.223Z,95904.00
2023-03-16T12:49:13.220Z,95904.00
2023-03-16T12:50:13.238Z,95906.00
2023-03-16T12:51:14.242Z,95906.00
2023-03-16T12:52:14.205Z,95902.00
2023-03-16T12:53:13.208Z,95900.00
2023-03-16T12:54:14.188Z,95902.00
2023-03-16T12:55:14.190Z,95896.00
2023-03-16T12:56:14.177Z,95894.00
2023-03-16T12:57:13.168Z,95894.00
2023-03-16T12:58:14.194Z,95896.00
2023-03-16T12:59:13.158Z,95892.00
2023-03-16T13:00:14.162Z,95890.00
2023-03-16T13:01:14.217Z,95890.00
2023-03-16T13:02:14.142Z,95890.00
2023-03-16T13:03:14.133Z,95888.00
2023-03-16T13:04:13.173Z,95884.00
2023-03-16T13:05:14.118Z,95886.00
2023-03-16T13:06:14.122Z,95890.00
2023-03-16T13:07:14.091Z,95886.00
2023-03-16T13:08:14.094Z,95883.00
2023-03-16T13:09:13.114Z,95881.00
2023-03-16T13:10:14.137Z,95879.00
2023-03-16T13:11:14.153Z,95879.00
2023-03-16T13:12:14.831Z,95879.00
2023-03-16T13:13:14.181Z,95883.00
2023-03-16T13:14:14.257Z,95877.00
2023-03-16T13:15:14.267Z,95875.00
2023-03-16T13:16:14.303Z,95879.00
2023-03-16T13:17:14.397Z,95879.00
2023-03-16T13:18:14.400Z,95877.00
2023-03-16T13:19:14.448Z,95877.00
2023-03-16T13:20:29.597Z,95873.00
2023-03-16T13:21:14.476Z,95875.00
2023-03-16T13:22:14.464Z,95875.00
2023-03-16T13:23:14.472Z,95877.00
2023-03-16T13:24:14.457Z,95873.00
2023-03-16T13:25:14.455Z,95869.00
2023-03-16T13:26:14.429Z,95871.00
2023-03-16T13:27:13.448Z,95871.00
2023-03-16T13:28:13.411Z,95867.00
2023-03-16T13:29:13.411Z,95865.00
2023-03-16T13:30:14.522Z,95865.00
2023-03-16T13:31:14.384Z,95861.00
2023-03-16T13:32:14.405Z,95865.00
2023-03-16T13:33:14.376Z,95863.00
2023-03-16T13:34:14.371Z,95863.00
2023-03-16T13:35:14.364Z,95863.00
2023-03-16T13:36:14.413Z,95865.00
2023-03-16T13:37:14.366Z,95861.00
2023-03-16T13:38:14.339Z,95863.00
2023-03-16T13:39:14.360Z,95857.00
2023-03-16T13:40:14.324Z,95857.00
2023-03-16T13:41:13.328Z,95855.00
2023-03-16T13:42:13.305Z,95849.00
2023-03-16T13:43:14.302Z,95851.00
2023-03-16T13:44:14.298Z,95849.00
2023-03-16T13:45:14.301Z,95849.00
2023-03-16T13:46:14.391Z,95849.00
2023-03-16T13:47:14.288Z,95847.00
2023-03-16T13:48:14.271Z,95845.00
2023-03-16T13:49:14.255Z,95845.00
2023-03-16T13:50:14.270Z,95843.00
2023-03-16T13:51:14.251Z,95843.00
2023-03-16T13:52:14.230Z,95843.00
2023-03-16T13:53:14.226Z,95841.00
2023-03-16T13:54:14.232Z,95839.00
2023-03-16T13:55:14.212Z,95839.00
2023-03-16T13:56:14.208Z,95841.00
2023-03-16T13:57:14.192Z,95841.00
2023-03-16T13:58:13.185Z,95841.00
2023-03-16T13:59:14.194Z,95841.00
2023-03-16T14:00:14.186Z,95845.00
2023-03-16T14:01:14.261Z,95843.00
2023-03-16T14:02:14.236Z,95845.00
2023-03-16T14:03:14.159Z,95847.00
2023-03-16T14:04:14.146Z,95845.00
2023-03-16T14:05:13.141Z,95845.00
2023-03-16T14:06:14.133Z,95843.00
2023-03-16T14:07:14.121Z,95847.00
2023-03-16T14:08:14.128Z,95845.00
2023-03-16T14:09:13.119Z,95845.00
2023-03-16T14:10:14.110Z,95843.00
2023-03-16T14:11:14.096Z,95845.00
2023-03-16T14:12:13.090Z,95843.00
2023-03-16T14:13:14.088Z,95841.00
2023-03-16T14:14:13.136Z,95841.00
2023-03-16T14:15:14.139Z,95839.00
2023-03-16T14:16:14.110Z,95839.00
2023-03-16T14:17:14.121Z,95841.00
2023-03-16T14:18:13.199Z,95841.00
2023-03-16T14:19:14.231Z,95839.00
2023-03-16T14:20:14.328Z,95841.00
2023-03-16T14:21:13.348Z,95834.00
2023-03-16T14:22:14.350Z,95841.00
2023-03-16T14:23:14.398Z,95837.00
2023-03-16T14:24:14.446Z,95836.00
2023-03-16T14:25:14.512Z,95837.00
2023-03-16T14:26:14.543Z,95836.00
2023-03-16T14:27:13.555Z,95839.00
2023-03-16T14:28:14.566Z,95837.00
2023-03-16T14:29:14.587Z,95837.00
2023-03-16T14:30:14.580Z,95839.00
2023-03-16T14:31:14.677Z,95837.00
2023-03-16T14:32:13.678Z,95836.00
2023-03-16T14:33:14.721Z,95839.00
2023-03-16T14:34:14.830Z,95837.00
2023-03-16T14:35:14.823Z,95834.00
2023-03-16T14:36:15.007Z,95834.00
2023-03-16T14:37:14.927Z,95834.00
2023-03-16T14:38:13.992Z,95834.00
2023-03-16T14:39:15.053Z,95834.00
2023-03-16T14:40:14.072Z,95830.00
2023-03-16T14:41:15.130Z,95832.00
2023-03-16T14:42:15.175Z,95830.00
2023-03-16T14:43:15.203Z,95828.00
2023-03-16T14:44:17.201Z,95826.00
2023-03-16T14:45:15.235Z,95826.00
2023-03-16T14:46:15.280Z,95826.00
2023-03-16T14:47:15.242Z,95826.00
2023-03-16T14:48:14.215Z,95824.00
2023-03-16T14:49:15.236Z,95822.00
2023-03-16T14:50:15.261Z,95820.00
2023-03-16T14:51:15.217Z,95820.00
2023-03-16T14:52:14.198Z,95820.00
2023-03-16T14:53:15.198Z,95820.00
2023-03-16T14:54:14.194Z,95818.00
2023-03-16T14:55:15.167Z,95818.00
2023-03-16T14:56:14.163Z,95816.00
2023-03-16T14:57:15.165Z,95816.00
2023-03-16T14:58:14.142Z,95816.00
2023-03-16T14:59:14.157Z,95822.00
2023-03-16T15:00:15.162Z,95820.00
2023-03-16T15:01:14.206Z,95822.00
2023-03-16T15:02:15.113Z,95816.00
2023-03-16T15:03:15.106Z,95818.00
2023-03-16T15:04:15.181Z,95818.00
2023-03-16T15:05:15.109Z,95820.00
2023-03-16T15:06:15.110Z,95822.00
2023-03-16T15:07:14.086Z,95822.00
2023-03-16T15:08:14.099Z,95820.00
2023-03-16T15:09:15.072Z,95822.00
2023-03-16T15:10:15.070Z,95820.00
2023-03-16T15:11:15.052Z,95820.00
2023-03-16T15:12:14.085Z,95822.00
2023-03-16T15:13:14.143Z,95824.00
2023-03-16T15:14:14.323Z,95822.00
2023-03-16T15:15:15.256Z,95820.00
2023-03-16T15:16:14.495Z,95820.00
2023-03-16T15:17:15.411Z,95818.00
2023-03-16T15:18:15.445Z,95818.00
2023-03-16T15:19:15.490Z,95814.00
2023-03-16T15:20:15.613Z,95814.00
2023-03-16T15:21:14.594Z,95814.00
2023-03-16T15:22:15.632Z,95812.00
2023-03-16T15:23:14.653Z,95814.00
2023-03-16T15:24:15.660Z,95812.00
2023-03-16T15:25:15.675Z,95806.00
2023-03-16T15:26:15.690Z,95806.00
2023-03-16T15:27:15.669Z,95810.00
2023-03-16T15:28:14.677Z,95806.00
2023-03-16T15:29:15.671Z,95806.00
2023-03-16T15:30:15.700Z,95806.00
2023-03-16T15:31:15.696Z,95806.00
2023-03-16T15:32:14.664Z,95806.00
2023-03-16T15:33:15.661Z,95806.00
2023-03-16T15:34:15.659Z,95806.00
2023-03-16T15:35:14.659Z,95808.00
2023-03-16T15:36:15.670Z,95810.00
2023-03-16T15:37:15.661Z,95812.00
2023-03-16T15:38:14.676Z,95814.00
2023-03-16T15:39:15.651Z,95814.00
2023-03-16T15:40:15.678Z,95808.00
2023-03-16T15:41:15.663Z,95810.00
2023-03-16T15:42:15.654Z,95810.00
2023-03-16T15:43:15.639Z,95810.00
2023-03-16T15:44:15.639Z,95806.00
2023-03-16T15:45:15.628Z,95808.00
2023-03-16T15:46:14.706Z,95808.00
2023-03-16T15:47:15.613Z,95806.00
2023-03-16T15:48:15.605Z,95804.00
2023-03-16T15:49:15.616Z,95808.00
2023-03-16T15:50:14.601Z,95804.00
2023-03-16T15:51:15.596Z,95804.00
2023-03-16T15:52:15.592Z,95806.00
2023-03-16T15:53:29.657Z,95804.00
2023-03-16T15:54:15.629Z,95802.00
2023-03-16T15:55:15.805Z,95802.00
2023-03-16T15:56:15.580Z,95808.00
2023-03-16T15:57:15.573Z,95810.00
2023-03-16T15:58:15.566Z,95808.00
2023-03-16T15:59:15.548Z,95810.00
2023-03-16T16:00:14.560Z,95806.00
2023-03-16T16:01:15.561Z,95806.00
2023-03-16T16:02:15.529Z,95810.00
2023-03-16T16:03:15.885Z,95806.00
2023-03-16T16:04:15.592Z,95808.00
2023-03-16T16:05:14.545Z,95808.00
2023-03-16T16:06:14.505Z,95806.00
2023-03-16T16:07:15.486Z,95810.00
2023-03-16T16:08:15.486Z,95810.00
2023-03-16T16:09:15.482Z,95810.00
2023-03-16T16:10:15.504Z,95810.00
2023-03-16T16:11:15.459Z,95810.00
2023-03-16T16:12:15.449Z,95808.00
2023-03-16T16:13:15.464Z,95810.00
2023-03-16T16:14:15.452Z,95810.00
2023-03-16T16:15:15.435Z,95812.00
2023-03-16T16:16:15.592Z,95806.00
2023-03-16T16:17:15.426Z,95808.00
2023-03-16T16:18:21.291Z,95812.00
2023-03-16T16:19:15.439Z,95816.00
2023-03-16T16:20:15.407Z,95816.00
2023-03-16T16:21:15.404Z,95816.00
2023-03-16T16:22:15.385Z,95816.00
2023-03-16T16:23:15.389Z,95814.00
2023-03-16T16:24:14.376Z,95816.00
2023-03-16T16:25:15.383Z,95818.00
2023-03-16T16:26:14.391Z,95818.00
2023-03-16T16:27:15.348Z,95820.00
2023-03-16T16:28:14.353Z,95820.00
2023-03-16T16:29:15.341Z,95828.00
